createdAt,value
2018-10-21T00:00:43.994Z,12.29
2018-10-21T00:01:53.606Z,12.29
2018-10-21T00:03:03.876Z,12.1
2018-10-21T00:04:14.032Z,12
2018-10-21T00:05:23.666Z,12
2018-10-21T00:06:33.833Z,12.57
2018-10-21T00:07:43.995Z,12.19
2018-10-21T00:08:53.348Z,12
2018-10-21T00:10:03.381Z,12
2018-10-21T00:11:13.270Z,11.43
2018-10-21T00:12:22.881Z,11.91
2018-10-21T00:13:32.229Z,11.71
2018-10-21T00:14:42.404Z,11.33
2018-10-21T00:15:52.014Z,11.33
2018-10-21T00:17:01.630Z,10.57
2018-10-21T00:18:11.247Z,10.38
2018-10-21T00:19:21.137Z,10.48
2018-10-21T00:20:30.748Z,11.24
2018-10-21T00:21:40.647Z,10.57
2018-10-21T00:22:50.810Z,11.15
2018-10-21T00:24:00.697Z,10.1
2018-10-21T00:25:10.865Z,9.72
2018-10-21T00:26:20.212Z,9.33
2018-10-21T00:27:30.378Z,9.43
2018-10-21T00:28:39.994Z,9.81
2018-10-21T00:29:49.888Z,9.72
2018-10-21T00:30:59.217Z,9.91
2018-10-21T00:32:09.112Z,9.72
2018-10-21T00:33:19.428Z,8.86
2018-10-21T00:34:29.047Z,9.05
2018-10-21T00:35:38.968Z,9.43
2018-10-21T00:36:48.864Z,9.81
2018-10-21T00:37:58.756Z,9.24
2018-10-21T00:39:07.859Z,8.95
2018-10-21T00:40:18.110Z,8.86
2018-10-21T00:41:27.451Z,9.72
2018-10-21T00:42:37.067Z,9.24
2018-10-21T00:43:47.003Z,9.24
2018-10-21T00:44:57.248Z,8.86
2018-10-21T00:46:07.359Z,9.62
2018-10-21T00:47:17.251Z,9.33
2018-10-21T00:48:27.440Z,9.05
2018-10-21T00:49:37.059Z,8.76
2018-10-21T00:50:46.400Z,8.57
2018-10-21T00:51:56.022Z,8.76
2018-10-21T00:53:05.632Z,8.57
2018-10-21T00:54:14.978Z,9.24
2018-10-21T00:55:24.882Z,8.86
2018-10-21T00:56:34.774Z,8.48
2018-10-21T00:57:44.660Z,8.19
2018-10-21T00:58:54.836Z,8.19
2018-10-21T01:00:04.739Z,8.29
2018-10-21T01:01:14.914Z,7.43
2018-10-21T01:02:24.801Z,7.53
2018-10-21T01:03:34.964Z,7.71
2018-10-21T01:04:44.575Z,7.24
2018-10-21T01:05:54.454Z,7.05
2018-10-21T01:07:04.345Z,7.14
2018-10-21T01:08:14.237Z,6.76
2018-10-21T01:09:24.409Z,6.48
2018-10-21T01:10:34.643Z,6.38
2018-10-21T01:11:44.531Z,6
2018-10-21T01:12:54.152Z,5.24
2018-10-21T01:14:04.051Z,5.62
2018-10-21T01:15:14.093Z,5.81
2018-10-21T01:16:23.414Z,5.52
2018-10-21T01:17:33.033Z,5.81
2018-10-21T01:18:43.198Z,5.81
2018-10-21T01:19:53.084Z,5.62
2018-10-21T01:21:03.355Z,5.52
2018-10-21T01:22:13.249Z,6.1
2018-10-21T01:23:23.422Z,6.1
2018-10-21T01:24:33.588Z,6.1
2018-10-21T01:25:43.489Z,5.43
2018-10-21T01:26:53.370Z,5.9
2018-10-21T01:28:03.047Z,5.24
2018-10-21T01:29:12.932Z,6.1
2018-10-21T01:30:23.102Z,6
2018-10-21T01:31:32.722Z,5.9
2018-10-21T01:32:42.628Z,6.38
2018-10-21T01:33:52.786Z,6.29
2018-10-21T01:35:02.965Z,5.9
2018-10-21T01:36:13.639Z,6.1
2018-10-21T01:37:24.260Z,5.71
2018-10-21T01:38:34.675Z,5.14
2018-10-21T01:39:44.837Z,4.85
2018-10-21T01:40:55.010Z,4.38
2018-10-21T01:42:04.841Z,3.81
2018-10-21T01:43:14.731Z,3.14
2018-10-21T01:44:24.629Z,3.42
2018-10-21T01:45:34.519Z,3.42
2018-10-21T01:46:44.132Z,3.71
2018-10-21T01:47:54.288Z,3.33
2018-10-21T01:49:04.203Z,2.86
2018-10-21T01:50:13.273Z,2.47
2018-10-21T01:51:23.217Z,2.19
2018-10-21T01:52:32.556Z,1.71
2018-10-21T01:53:42.444Z,1.33
2018-10-21T01:54:51.785Z,0.57
2018-10-21T01:56:01.945Z,0
2018-10-21T01:57:11.817Z,0
2018-10-21T01:58:22.454Z,0
2018-10-21T01:59:32.133Z,0
2018-10-21T02:00:42.287Z,0
2018-10-21T02:01:52.171Z,0
2018-10-21T02:03:01.894Z,0
2018-10-21T02:04:11.675Z,0
2018-10-21T02:05:21.609Z,0
2018-10-21T02:06:31.500Z,0
2018-10-21T02:07:41.384Z,0
2018-10-21T02:08:51.551Z,0
2018-10-21T02:10:01.541Z,0
2018-10-21T02:11:11.435Z,0
2018-10-21T02:12:21.319Z,0
2018-10-21T02:13:30.942Z,0
2018-10-21T02:14:40.837Z,0
2018-10-21T02:15:51.004Z,0
2018-10-21T02:17:00.072Z,0
2018-10-21T02:18:09.686Z,0
2018-10-21T02:19:19.035Z,0
2018-10-21T02:20:28.961Z,0
2018-10-21T02:21:38.854Z,0
2018-10-21T02:22:49.013Z,0
2018-10-21T02:23:58.634Z,0
2018-10-21T02:25:08.796Z,0
2018-10-21T02:26:18.821Z,0
2018-10-21T02:27:29.301Z,0
2018-10-21T02:28:38.655Z,0
2018-10-21T02:29:47.998Z,0
2018-10-21T02:30:57.610Z,0
2018-10-21T02:32:06.680Z,0
2018-10-21T02:33:16.083Z,0
2018-10-21T02:34:26.215Z,0
2018-10-21T02:35:36.109Z,0
2018-10-21T02:36:46.001Z,0
2018-10-21T02:37:55.890Z,0
2018-10-21T02:39:05.801Z,0
2018-10-21T02:40:15.357Z,0
2018-10-21T02:41:24.986Z,0
2018-10-21T02:42:34.890Z,0
2018-10-21T02:43:44.233Z,0
2018-10-21T02:44:54.177Z,0
2018-10-21T02:46:03.962Z,0
2018-10-21T02:47:14.149Z,0
2018-10-21T02:48:23.494Z,0
2018-10-21T02:49:33.654Z,0
2018-10-21T02:50:43.836Z,0
2018-10-21T02:51:53.446Z,0
2018-10-21T02:53:03.364Z,0
2018-10-21T02:54:12.709Z,0
2018-10-21T02:55:22.051Z,0
2018-10-21T02:56:31.948Z,0
2018-10-21T02:57:41.575Z,0
2018-10-21T02:58:51.473Z,0
2018-10-21T03:00:01.108Z,0
2018-10-21T03:01:11.009Z,0
2018-10-21T03:02:20.903Z,0
2018-10-21T03:03:30.521Z,0
2018-10-21T03:04:40.415Z,0
2018-10-21T03:05:50.034Z,0
2018-10-21T03:06:59.929Z,0
2018-10-21T03:08:10.096Z,0
2018-10-21T03:09:19.522Z,0
2018-10-21T03:10:29.227Z,0
2018-10-21T03:11:39.403Z,0
2018-10-21T03:12:49.295Z,0
2018-10-21T03:13:58.635Z,0
2018-10-21T03:15:08.440Z,0
2018-10-21T03:16:18.720Z,0
2018-10-21T03:17:28.356Z,0
2018-10-21T03:18:37.971Z,0
2018-10-21T03:19:47.868Z,0
2018-10-21T03:20:58.176Z,0
2018-10-21T03:22:08.260Z,0
2018-10-21T03:23:18.151Z,0
2018-10-21T03:24:27.759Z,0
2018-10-21T03:25:37.656Z,0
2018-10-21T03:26:47.539Z,0
2018-10-21T03:27:57.552Z,0
2018-10-21T03:29:06.347Z,0
2018-10-21T03:30:16.255Z,0
2018-10-21T03:31:25.927Z,0
2018-10-21T03:32:35.901Z,0
2018-10-21T03:33:46.390Z,0
2018-10-21T03:34:55.907Z,0
2018-10-21T03:36:05.832Z,0
2018-10-21T03:37:16.037Z,0
2018-10-21T03:38:26.206Z,0
2018-10-21T03:39:36.107Z,0
2018-10-21T03:40:46.265Z,0
2018-10-21T03:41:55.873Z,0
2018-10-21T03:43:05.485Z,0
2018-10-21T03:44:15.105Z,0
2018-10-21T03:45:24.724Z,0
2018-10-21T03:46:33.791Z,0
2018-10-21T03:47:43.696Z,0
2018-10-21T03:48:53.318Z,0
2018-10-21T03:50:03.492Z,0
2018-10-21T03:51:12.822Z,0
2018-10-21T03:52:22.443Z,0
2018-10-21T03:53:32.055Z,0
2018-10-21T03:54:41.396Z,0
2018-10-21T03:55:51.015Z,0
2018-10-21T03:57:00.638Z,0
2018-10-21T03:58:10.120Z,0
2018-10-21T03:59:20.654Z,0
2018-10-21T04:00:29.996Z,0
2018-10-21T04:01:40.220Z,0
2018-10-21T04:02:49.830Z,0
2018-10-21T04:03:59.753Z,0
2018-10-21T04:05:10.263Z,0
2018-10-21T04:06:19.881Z,0
2018-10-21T04:07:30.043Z,0
2018-10-21T04:08:39.654Z,0
2018-10-21T04:09:49.552Z,0
2018-10-21T04:10:59.753Z,0
2018-10-21T04:12:09.636Z,0
2018-10-21T04:13:19.262Z,0
2018-10-21T04:14:28.617Z,0
2018-10-21T04:15:37.969Z,0
2018-10-21T04:16:47.595Z,0
2018-10-21T04:17:57.225Z,0
2018-10-21T04:19:07.389Z,0
2018-10-21T04:20:17.008Z,0
2018-10-21T04:21:26.346Z,0
2018-10-21T04:22:36.239Z,0
2018-10-21T04:23:45.863Z,0
2018-10-21T04:24:55.745Z,0
2018-10-21T04:26:05.641Z,0
2018-10-21T04:27:15.798Z,0
2018-10-21T04:28:25.134Z,0
2018-10-21T04:29:35.024Z,0
2018-10-21T04:30:45.198Z,0
2018-10-21T04:31:55.109Z,0
2018-10-21T04:33:04.735Z,0
2018-10-21T04:34:14.587Z,0
2018-10-21T04:35:25.042Z,0
2018-10-21T04:36:35.397Z,0
2018-10-21T04:37:45.012Z,0
2018-10-21T04:38:54.902Z,0
2018-10-21T04:40:04.589Z,0
2018-10-21T04:41:15.184Z,0
2018-10-21T04:42:24.851Z,0
2018-10-21T04:43:34.741Z,0
2018-10-21T04:44:44.352Z,0
2018-10-21T04:45:53.996Z,0
2018-10-21T04:47:04.858Z,0
2018-10-21T04:48:15.104Z,0
2018-10-21T04:49:24.985Z,0
2018-10-21T04:50:34.603Z,0
2018-10-21T04:51:44.761Z,0
2018-10-21T04:52:54.659Z,0
2018-10-21T04:54:04.005Z,0
2018-10-21T04:55:13.895Z,0
2018-10-21T04:56:23.513Z,0
2018-10-21T04:57:33.397Z,0
2018-10-21T04:58:43.018Z,0
2018-10-21T04:59:53.179Z,0
2018-10-21T05:01:02.787Z,0
2018-10-21T05:02:12.946Z,0
2018-10-21T05:03:22.834Z,0
2018-10-21T05:04:32.179Z,0
2018-10-21T05:05:42.080Z,0
2018-10-21T05:06:51.695Z,0
2018-10-21T05:08:01.320Z,0
2018-10-21T05:09:11.499Z,0
2018-10-21T05:10:21.666Z,0
2018-10-21T05:11:31.839Z,0
2018-10-21T05:12:41.454Z,0
2018-10-21T05:13:51.345Z,0
2018-10-21T05:15:01.562Z,0
2018-10-21T05:16:11.749Z,0
2018-10-21T05:17:21.974Z,0
2018-10-21T05:18:31.879Z,0
2018-10-21T05:19:41.766Z,0
2018-10-21T05:20:51.379Z,0
2018-10-21T05:22:01.635Z,0
2018-10-21T05:23:11.415Z,0
2018-10-21T05:24:21.587Z,0
2018-10-21T05:25:31.203Z,0
2018-10-21T05:26:41.383Z,0
2018-10-21T05:27:50.727Z,0
2018-10-21T05:29:01.005Z,0
2018-10-21T05:30:10.623Z,0
2018-10-21T05:31:20.792Z,0
2018-10-21T05:32:30.405Z,0
2018-10-21T05:33:40.569Z,0
2018-10-21T05:34:50.243Z,0
2018-10-21T05:35:59.851Z,0
2018-10-21T05:37:09.469Z,0
2018-10-21T05:38:19.358Z,0
2018-10-21T05:39:29.249Z,0
2018-10-21T05:40:39.184Z,0
2018-10-21T05:41:49.332Z,0
2018-10-21T05:42:58.950Z,0
2018-10-21T05:44:08.837Z,0
2018-10-21T05:45:18.462Z,0
2018-10-21T05:46:28.350Z,0
2018-10-21T05:47:38.018Z,0
2018-10-21T05:48:47.916Z,0
2018-10-21T05:49:56.980Z,0
2018-10-21T05:51:06.592Z,0
2018-10-21T05:52:17.048Z,0
2018-10-21T05:53:26.760Z,0
2018-10-21T05:54:36.928Z,0
2018-10-21T05:55:46.542Z,0
2018-10-21T05:56:56.158Z,0
2018-10-21T05:58:06.217Z,0
2018-10-21T05:59:16.628Z,0
2018-10-21T06:00:26.826Z,0
2018-10-21T06:01:36.717Z,0
2018-10-21T06:02:46.951Z,0
2018-10-21T06:03:57.620Z,0
2018-10-21T06:05:07.480Z,0
2018-10-21T06:06:17.370Z,0
2018-10-21T06:07:27.000Z,0
2018-10-21T06:08:36.620Z,0
2018-10-21T06:09:46.060Z,0
2018-10-21T06:10:55.680Z,0
2018-10-21T06:12:05.847Z,0
2018-10-21T06:13:15.479Z,0
2018-10-21T06:14:25.371Z,0
2018-10-21T06:15:34.983Z,0
2018-10-21T06:16:44.786Z,0
2018-10-21T06:17:54.943Z,0
2018-10-21T06:19:04.571Z,0
2018-10-21T06:20:14.458Z,0.19
2018-10-21T06:21:24.627Z,0.19
2018-10-21T06:22:34.830Z,0.57
2018-10-21T06:23:45.211Z,0.57
2018-10-21T06:24:54.805Z,0.67
2018-10-21T06:26:03.881Z,0.76
2018-10-21T06:27:13.762Z,0.95
2018-10-21T06:28:23.922Z,1.23
2018-10-21T06:29:33.267Z,1.23
2018-10-21T06:30:43.162Z,1.14
2018-10-21T06:31:53.057Z,1.14
2018-10-21T06:33:02.723Z,1.23
2018-10-21T06:34:12.462Z,1.43
2018-10-21T06:35:22.636Z,1.43
2018-10-21T06:36:32.552Z,1.33
2018-10-21T06:37:42.680Z,1.52
2018-10-21T06:38:52.577Z,1.04
2018-10-21T06:40:02.560Z,1.14
2018-10-21T06:41:12.735Z,1.23
2018-10-21T06:42:22.896Z,0.95
2018-10-21T06:43:32.787Z,1.62
2018-10-21T06:44:42.141Z,1.62
2018-10-21T06:45:51.481Z,1.71
2018-10-21T06:47:01.106Z,1.52
2018-10-21T06:48:10.992Z,2
2018-10-21T06:49:20.939Z,2.19
2018-10-21T06:50:30.837Z,2.28
2018-10-21T06:51:40.733Z,2.19
2018-10-21T06:52:50.082Z,2.95
2018-10-21T06:53:59.978Z,2.95
2018-10-21T06:55:09.581Z,2.95
2018-10-21T06:56:19.664Z,3.05
2018-10-21T06:57:29.714Z,3.71
2018-10-21T06:58:40.412Z,4.1
2018-10-21T06:59:50.035Z,4.38
2018-10-21T07:00:59.928Z,4.19
2018-10-21T07:02:09.314Z,4.19
2018-10-21T07:03:18.655Z,3.9
2018-10-21T07:04:28.627Z,4
2018-10-21T07:05:38.615Z,4.19
2018-10-21T07:06:48.234Z,4.19
2018-10-21T07:07:57.859Z,4
2018-10-21T07:09:07.810Z,4.19
2018-10-21T07:10:17.771Z,4.19
2018-10-21T07:11:27.318Z,4.48
2018-10-21T07:12:36.663Z,4.95
2018-10-21T07:13:46.555Z,4.96
2018-10-21T07:14:56.186Z,5.33
2018-10-21T07:16:06.227Z,5.72
2018-10-21T07:17:16.696Z,6.48
2018-10-21T07:18:26.588Z,6.86
2018-10-21T07:19:36.524Z,6.76
2018-10-21T07:20:46.409Z,7.24
2018-10-21T07:21:56.094Z,7.34
2018-10-21T07:23:06.465Z,6.96
2018-10-21T07:24:15.806Z,7.24
2018-10-21T07:25:25.428Z,8.2
2018-10-21T07:26:35.602Z,7.91
2018-10-21T07:27:45.770Z,8.29
2018-10-21T07:28:55.468Z,8.2
2018-10-21T07:30:05.365Z,8.1
2018-10-21T07:31:14.991Z,8.29
2018-10-21T07:32:24.875Z,8.86
2018-10-21T07:33:34.768Z,9.05
2018-10-21T07:34:44.927Z,9.15
2018-10-21T07:35:54.821Z,9.34
2018-10-21T07:37:03.898Z,9.72
2018-10-21T07:38:13.786Z,9.63
2018-10-21T07:39:23.679Z,10
2018-10-21T07:40:33.298Z,10.29
2018-10-21T07:41:43.465Z,10.96
2018-10-21T07:42:53.361Z,10.96
2018-10-21T07:44:02.708Z,10.77
2018-10-21T07:45:12.318Z,10.39
2018-10-21T07:46:21.947Z,11.15
2018-10-21T07:47:31.832Z,11.53
2018-10-21T07:48:42.017Z,11.82
2018-10-21T07:49:52.181Z,12.2
2018-10-21T07:51:02.079Z,12.39
2018-10-21T07:52:11.380Z,12.87
2018-10-21T07:53:21.438Z,13.34
2018-10-21T07:54:31.598Z,13.06
2018-10-21T07:55:41.710Z,13.06
2018-10-21T07:56:51.845Z,13.06
2018-10-21T07:58:01.847Z,13.24
2018-10-21T07:59:11.952Z,13.15
2018-10-21T08:00:21.845Z,13.15
2018-10-21T08:01:31.905Z,13.63
2018-10-21T08:02:41.482Z,13.73
2018-10-21T08:03:50.549Z,13.92
2018-10-21T08:05:00.465Z,14.11
2018-10-21T08:06:09.801Z,14.4
2018-10-21T08:07:19.968Z,15.26
2018-10-21T08:08:29.889Z,15.06
2018-10-21T08:09:40.267Z,15.26
2018-10-21T08:10:50.432Z,15.25
2018-10-21T08:12:00.331Z,15.92
2018-10-21T08:13:10.229Z,16.11
2018-10-21T08:14:20.122Z,16.5
2018-10-21T08:15:29.489Z,16.3
2018-10-21T08:16:39.662Z,16.88
2018-10-21T08:17:49.550Z,16.4
2018-10-21T08:18:59.223Z,16.69
2018-10-21T08:20:09.394Z,16.78
2018-10-21T08:21:19.211Z,16.88
2018-10-21T08:22:29.663Z,18.02
2018-10-21T08:23:39.603Z,18.31
2018-10-21T08:24:49.494Z,18.02
2018-10-21T08:25:58.569Z,18.02
2018-10-21T08:27:07.920Z,17.93
2018-10-21T08:28:18.304Z,18.88
2018-10-21T08:29:28.280Z,19.64
2018-10-21T08:30:38.178Z,20.03
2018-10-21T08:31:48.349Z,19.93
2018-10-21T08:32:58.516Z,20.5
2018-10-21T08:34:07.610Z,20.99
2018-10-21T08:35:17.938Z,20.69
2018-10-21T08:36:27.827Z,20.79
2018-10-21T08:37:37.182Z,20.89
2018-10-21T08:38:46.527Z,22.23
2018-10-21T08:39:56.785Z,23.47
2018-10-21T08:41:06.913Z,23.75
2018-10-21T08:42:17.079Z,23.75
2018-10-21T08:43:26.731Z,24.04
2018-10-21T08:44:36.891Z,24.52
2018-10-21T08:45:47.051Z,24.99
2018-10-21T08:46:57.276Z,25.09
2018-10-21T08:48:06.903Z,25.47
2018-10-21T08:49:17.141Z,25.38
2018-10-21T08:50:27.817Z,25.76
2018-10-21T08:51:37.441Z,26.24
2018-10-21T08:52:47.064Z,28.24
2018-10-21T08:53:57.242Z,27.86
2018-10-21T08:55:06.935Z,28.24
2018-10-21T08:56:17.269Z,28.53
2018-10-21T08:57:27.452Z,29.48
2018-10-21T08:58:37.344Z,28.72
2018-10-21T08:59:47.238Z,28.62
2018-10-21T09:00:56.936Z,28.62
2018-10-21T09:02:07.217Z,29.67
2018-10-21T09:03:16.819Z,29.38
2018-10-21T09:04:26.746Z,30.34
2018-10-21T09:05:36.652Z,29.86
2018-10-21T09:06:46.275Z,30.24
2018-10-21T09:07:56.493Z,31.02
2018-10-21T09:09:06.453Z,31.21
2018-10-21T09:10:16.639Z,31.79
2018-10-21T09:11:26.768Z,32.17
2018-10-21T09:12:35.837Z,32.07
2018-10-21T09:13:46.011Z,32.45
2018-10-21T09:14:55.933Z,32.36
2018-10-21T09:16:06.120Z,32.36
2018-10-21T09:17:16.616Z,32.93
2018-10-21T09:18:26.510Z,33.31
2018-10-21T09:19:36.127Z,34.55
2018-10-21T09:20:46.293Z,33.89
2018-10-21T09:21:56.242Z,33.5
2018-10-21T09:23:06.689Z,34.46
2018-10-21T09:24:16.316Z,33.12
2018-10-21T09:25:26.216Z,33.79
2018-10-21T09:26:36.121Z,33.31
2018-10-21T09:27:45.756Z,34.65
2018-10-21T09:28:55.650Z,35.99
2018-10-21T09:30:04.995Z,35.89
2018-10-21T09:31:15.146Z,35.89
2018-10-21T09:32:25.483Z,36.27
2018-10-21T09:33:35.106Z,36.66
2018-10-21T09:34:45.277Z,36.94
2018-10-21T09:35:55.445Z,36.85
2018-10-21T09:37:05.001Z,37.51
2018-10-21T09:38:15.547Z,37.32
2018-10-21T09:39:25.162Z,38.87
2018-10-21T09:40:35.064Z,38.78
2018-10-21T09:41:44.957Z,38.78
2018-10-21T09:42:54.865Z,39.44
2018-10-21T09:44:04.626Z,40.2
2018-10-21T09:45:14.232Z,40.3
2018-10-21T09:46:24.128Z,40.88
2018-10-21T09:47:34.027Z,41.26
2018-10-21T09:48:44.204Z,41.35
2018-10-21T09:49:54.221Z,42.11
2018-10-21T09:51:04.603Z,41.64
2018-10-21T09:52:15.092Z,42.11
2018-10-21T09:53:25.143Z,42.4
2018-10-21T09:54:35.057Z,43.48
2018-10-21T09:55:45.285Z,44.12
2018-10-21T09:56:55.177Z,44.43
2018-10-21T09:58:05.181Z,45.08
2018-10-21T09:59:15.781Z,45.96
2018-10-21T10:00:25.675Z,45.77
2018-10-21T10:01:35.847Z,46.06
2018-10-21T10:02:45.745Z,46.53
2018-10-21T10:03:56.208Z,48.83
2018-10-21T10:05:06.279Z,49.49
2018-10-21T10:06:16.385Z,49.3
2018-10-21T10:07:26.556Z,48.83
2018-10-21T10:08:36.452Z,48.83
2018-10-21T10:09:46.077Z,48.07
2018-10-21T10:10:55.978Z,49.88
2018-10-21T10:12:05.876Z,50.07
2018-10-21T10:13:16.218Z,49.98
2018-10-21T10:14:25.592Z,49.59
2018-10-21T10:15:34.936Z,50.55
2018-10-21T10:16:45.165Z,50.07
2018-10-21T10:17:55.073Z,51.12
2018-10-21T10:19:04.502Z,50.64
2018-10-21T10:20:15.076Z,51.89
2018-10-21T10:21:24.978Z,51.98
2018-10-21T10:22:34.873Z,52.67
2018-10-21T10:23:45.123Z,53.73
2018-10-21T10:24:55.649Z,54.02
2018-10-21T10:26:05.693Z,54.11
2018-10-21T10:27:15.622Z,54.39
2018-10-21T10:28:25.243Z,54.02
2018-10-21T10:29:34.867Z,54.78
2018-10-21T10:30:44.216Z,55.45
2018-10-21T10:31:54.409Z,54.78
2018-10-21T10:33:04.585Z,55.74
2018-10-21T10:34:14.694Z,56.6
2018-10-21T10:35:24.233Z,56.31
2018-10-21T10:36:34.126Z,56.21
2018-10-21T10:37:44.351Z,55.54
2018-10-21T10:38:54.404Z,56.02
2018-10-21T10:40:04.160Z,56.12
2018-10-21T10:41:14.114Z,56.53
2018-10-21T10:42:24.471Z,56.88
2018-10-21T10:43:34.199Z,57.1
2018-10-21T10:44:44.368Z,56.79
2018-10-21T10:45:53.996Z,58.32
2018-10-21T10:47:04.040Z,58.03
2018-10-21T10:48:13.389Z,57.93
2018-10-21T10:49:23.003Z,58.12
2018-10-21T10:50:33.178Z,58.54
2018-10-21T10:51:42.799Z,58.06
2018-10-21T10:52:52.971Z,58.06
2018-10-21T10:54:03.087Z,58.54
2018-10-21T10:55:12.701Z,58.83
2018-10-21T10:56:23.285Z,58.92
2018-10-21T10:57:33.196Z,58.44
2018-10-21T10:58:42.272Z,59.2
2018-10-21T10:59:51.854Z,59.88
2018-10-21T11:01:03.058Z,59.78
2018-10-21T11:02:12.172Z,59.97
2018-10-21T11:03:21.260Z,59.01
2018-10-21T11:04:30.896Z,59.69
2018-10-21T11:05:40.796Z,59.59
2018-10-21T11:06:50.983Z,60.45
2018-10-21T11:08:01.226Z,60.16
2018-10-21T11:09:10.580Z,60.35
2018-10-21T11:10:20.572Z,60.06
2018-10-21T11:11:30.200Z,59.49
2018-10-21T11:12:39.871Z,60.26
2018-10-21T11:13:49.791Z,60.06
2018-10-21T11:15:00.063Z,60.48
2018-10-21T11:16:10.040Z,60.48
2018-10-21T11:17:20.777Z,60.45
2018-10-21T11:18:30.678Z,60.55
2018-10-21T11:19:40.576Z,59.69
2018-10-21T11:20:50.278Z,60.83
2018-10-21T11:22:00.563Z,60.16
2018-10-21T11:23:11.087Z,60.77
2018-10-21T11:24:20.746Z,60.29
2018-10-21T11:25:30.639Z,60.67
2018-10-21T11:26:40.819Z,61.15
2018-10-21T11:27:50.840Z,61.44
2018-10-21T11:29:00.765Z,61.98
2018-10-21T11:30:10.669Z,62.11
2018-10-21T11:31:20.471Z,62.2
2018-10-21T11:32:30.098Z,62.68
2018-10-21T11:33:40.292Z,62.01
2018-10-21T11:34:50.183Z,62.87
2018-10-21T11:36:00.355Z,62.59
2018-10-21T11:37:09.916Z,62.59
2018-10-21T11:38:20.305Z,62.59
2018-10-21T11:39:30.202Z,62.77
2018-10-21T11:40:40.103Z,63.16
2018-10-21T11:41:49.745Z,62.3
2018-10-21T11:42:59.689Z,62.87
2018-10-21T11:44:09.544Z,62.87
2018-10-21T11:45:19.442Z,63.35
2018-10-21T11:46:29.431Z,64.5
2018-10-21T11:47:39.093Z,64.4
2018-10-21T11:48:49.004Z,64.5
2018-10-21T11:49:59.276Z,64.59
2018-10-21T11:51:09.183Z,64.4
2018-10-21T11:52:19.410Z,64.4
2018-10-21T11:53:29.213Z,64.59
2018-10-21T11:54:39.115Z,64.5
2018-10-21T11:55:48.469Z,64.22
2018-10-21T11:56:57.543Z,65.2
2018-10-21T11:58:06.964Z,65.68
2018-10-21T11:59:17.277Z,65.88
2018-10-21T12:00:26.893Z,65.88
2018-10-21T12:01:36.787Z,65.78
2018-10-21T12:02:46.968Z,66.25
2018-10-21T12:03:56.759Z,65.88
2018-10-21T12:05:07.188Z,66.06
2018-10-21T12:06:17.365Z,66.83
2018-10-21T12:07:26.721Z,67.21
2018-10-21T12:08:36.626Z,66.93
2018-10-21T12:09:45.993Z,66.93
2018-10-21T12:10:56.175Z,66.83
2018-10-21T12:12:06.071Z,67.5
2018-10-21T12:13:16.236Z,67.5
2018-10-21T12:14:26.236Z,67.79
2018-10-21T12:15:36.423Z,67.21
2018-10-21T12:16:46.099Z,67.88
2018-10-21T12:17:56.000Z,68.55
2018-10-21T12:19:05.957Z,69.32
2018-10-21T12:20:16.154Z,69.51
2018-10-21T12:21:26.340Z,69.42
2018-10-21T12:22:36.425Z,69.23
2018-10-21T12:23:46.278Z,69.13
2018-10-21T12:24:56.224Z,69.26
2018-10-21T12:26:06.744Z,69.93
2018-10-21T12:27:16.154Z,70.5
2018-10-21T12:28:26.320Z,70.89
2018-10-21T12:29:36.208Z,70.7
2018-10-21T12:30:46.107Z,70.98
2018-10-21T12:31:56.008Z,71.56
2018-10-21T12:33:05.905Z,71.56
2018-10-21T12:34:16.395Z,71.42
2018-10-21T12:35:26.477Z,71.33
2018-10-21T12:36:36.374Z,71.52
2018-10-21T12:37:46.562Z,71.81
2018-10-21T12:38:56.777Z,71.91
2018-10-21T12:40:07.159Z,72.19
2018-10-21T12:41:17.579Z,71.94
2018-10-21T12:42:27.494Z,72.58
2018-10-21T12:43:37.136Z,72.96
2018-10-21T12:44:47.312Z,72.67
2018-10-21T12:45:56.996Z,72.9
2018-10-21T12:47:06.839Z,73.09
2018-10-21T12:48:17.456Z,72.99
2018-10-21T12:49:27.382Z,73.09
2018-10-21T12:50:37.292Z,73.28
2018-10-21T12:51:46.935Z,74.05
2018-10-21T12:52:56.352Z,73.95
2018-10-21T12:54:06.263Z,74.05
2018-10-21T12:55:16.715Z,73.57
2018-10-21T12:56:26.645Z,73.66
2018-10-21T12:57:35.989Z,74.52
2018-10-21T12:58:45.620Z,74.15
2018-10-21T12:59:55.517Z,74.62
2018-10-21T13:01:05.737Z,75.2
2018-10-21T13:02:16.194Z,75.2
2018-10-21T13:03:26.457Z,75.39
2018-10-21T13:04:36.080Z,75.68
2018-10-21T13:05:45.703Z,75.77
2018-10-21T13:06:55.625Z,75.68
2018-10-21T13:08:05.035Z,75.77
2018-10-21T13:09:14.925Z,75.87
2018-10-21T13:10:24.836Z,75.68
2018-10-21T13:11:34.184Z,75.96
2018-10-21T13:12:43.979Z,76.06
2018-10-21T13:13:54.019Z,75.68
2018-10-21T13:15:03.928Z,75.77
2018-10-21T13:16:14.217Z,75.77
2018-10-21T13:17:23.770Z,76.64
2018-10-21T13:18:33.403Z,76.25
2018-10-21T13:19:43.778Z,76.35
2018-10-21T13:20:53.817Z,76.64
2018-10-21T13:22:04.092Z,76.54
2018-10-21T13:23:14.293Z,76.73
2018-10-21T13:24:24.191Z,76.44
2018-10-21T13:25:34.092Z,76.92
2018-10-21T13:26:44.314Z,77.02
2018-10-21T13:27:54.230Z,76.64
2018-10-21T13:29:03.748Z,77.02
2018-10-21T13:30:13.102Z,76.64
2018-10-21T13:31:22.715Z,76.64
2018-10-21T13:32:32.937Z,76.73
2018-10-21T13:33:42.556Z,76.82
2018-10-21T13:34:52.735Z,76.64
2018-10-21T13:36:02.635Z,76.64
2018-10-21T13:37:12.801Z,76.73
2018-10-21T13:38:22.922Z,77.02
2018-10-21T13:39:32.548Z,77.02
2018-10-21T13:40:42.937Z,76.96
2018-10-21T13:41:52.882Z,76.96
2018-10-21T13:43:02.567Z,76.96
2018-10-21T13:44:12.790Z,77.63
2018-10-21T13:45:22.148Z,77.53
2018-10-21T13:46:32.270Z,77.73
2018-10-21T13:47:42.246Z,77.53
2018-10-21T13:48:51.611Z,77.44
2018-10-21T13:50:01.656Z,77.25
2018-10-21T13:51:11.002Z,77.82
2018-10-21T13:52:20.272Z,78.2
2018-10-21T13:53:30.969Z,77.34
2018-10-21T13:54:41.152Z,77.82
2018-10-21T13:55:50.544Z,77.97
2018-10-21T13:57:00.159Z,77.97
2018-10-21T13:58:10.553Z,77.88
2018-10-21T13:59:20.972Z,77.69
2018-10-21T14:00:31.347Z,78.07
2018-10-21T14:01:42.078Z,77.78
2018-10-21T14:02:51.699Z,77.78
2018-10-21T14:04:01.397Z,77.69
2018-10-21T14:05:11.836Z,77.59
2018-10-21T14:06:21.734Z,77.78
2018-10-21T14:07:31.767Z,77.78
2018-10-21T14:08:41.940Z,77.88
2018-10-21T14:09:51.563Z,77.5
2018-10-21T14:11:01.220Z,77.59
2018-10-21T14:12:11.399Z,77.78
2018-10-21T14:13:21.183Z,77.88
2018-10-21T14:14:30.529Z,77.59
2018-10-21T14:15:40.742Z,77.5
2018-10-21T14:16:51.091Z,77.78
2018-10-21T14:18:00.714Z,78.17
2018-10-21T14:19:10.900Z,77.69
2018-10-21T14:20:20.810Z,77.78
2018-10-21T14:21:30.718Z,77.88
2018-10-21T14:22:40.110Z,77.97
2018-10-21T14:23:50.356Z,77.97
2018-10-21T14:25:00.523Z,78.64
2018-10-21T14:26:09.704Z,77.97
2018-10-21T14:27:19.359Z,77.78
2018-10-21T14:28:29.317Z,78.27
2018-10-21T14:29:38.946Z,78.36
2018-10-21T14:30:48.372Z,78.36
2018-10-21T14:31:59.022Z,78.45
2018-10-21T14:33:09.353Z,77.69
2018-10-21T14:34:19.319Z,78.17
2018-10-21T14:35:29.500Z,78.17
2018-10-21T14:36:39.395Z,78.27
2018-10-21T14:37:49.373Z,78.17
2018-10-21T14:38:59.233Z,77.69
2018-10-21T14:40:09.374Z,78.07
2018-10-21T14:41:19.284Z,78.64
2018-10-21T14:42:28.959Z,77.88
2018-10-21T14:43:39.129Z,78.36
2018-10-21T14:44:49.027Z,78.27
2018-10-21T14:45:59.807Z,78.45
2018-10-21T14:47:10.856Z,77.97
2018-10-21T14:48:20.649Z,78.45
2018-10-21T14:49:30.272Z,78.55
2018-10-21T14:50:40.497Z,78.36
2018-10-21T14:51:50.119Z,78.45
2018-10-21T14:52:59.477Z,78.45
2018-10-21T14:54:09.772Z,78.45
2018-10-21T14:55:20.224Z,78.4
2018-10-21T14:56:29.578Z,77.82
2018-10-21T14:57:39.219Z,78.4
2018-10-21T14:58:49.123Z,78.02
2018-10-21T14:59:58.856Z,78.3
2018-10-21T15:01:09.109Z,78.02
2018-10-21T15:02:19.006Z,78.49
2018-10-21T15:03:28.693Z,78.69
2018-10-21T15:04:39.358Z,78.2
2018-10-21T15:05:49.263Z,78.4
2018-10-21T15:06:59.520Z,78.4
2018-10-21T15:08:09.404Z,78.69
2018-10-21T15:09:20.077Z,78.88
2018-10-21T15:10:29.873Z,79.22
2018-10-21T15:11:39.539Z,79.13
2018-10-21T15:12:49.780Z,79.41
2018-10-21T15:13:59.708Z,79.03
2018-10-21T15:15:09.883Z,78.74
2018-10-21T15:16:19.623Z,79.32
2018-10-21T15:17:29.600Z,79.22
2018-10-21T15:18:39.236Z,79.13
2018-10-21T15:19:49.407Z,79.13
2018-10-21T15:20:59.674Z,79.22
2018-10-21T15:22:09.159Z,79.32
2018-10-21T15:23:19.328Z,79.51
2018-10-21T15:24:29.988Z,79.03
2018-10-21T15:25:39.887Z,79.18
2018-10-21T15:26:49.521Z,79.85
2018-10-21T15:27:59.489Z,79.47
2018-10-21T15:29:09.304Z,78.99
2018-10-21T15:30:18.915Z,79.85
2018-10-21T15:31:29.088Z,79.08
2018-10-21T15:32:39.263Z,79.37
2018-10-21T15:33:48.895Z,79.08
2018-10-21T15:34:58.872Z,79.18
2018-10-21T15:36:08.767Z,79.08
2018-10-21T15:37:18.683Z,79.37
2018-10-21T15:38:28.303Z,78.89
2018-10-21T15:39:37.521Z,79.18
2018-10-21T15:40:48.186Z,79.66
2018-10-21T15:41:57.809Z,79.28
2018-10-21T15:43:07.704Z,78.99